createdAt,value
2022-12-25T00:02:08.703Z,6.80
2022-12-25T00:05:00.534Z,6.40
2022-12-25T00:08:24.314Z,6.10
2022-12-25T00:11:07.959Z,6.10
2022-12-25T00:17:22.165Z,1.90
2022-12-25T00:23:11.021Z,-0.40
2022-12-25T00:26:15.040Z,-1.10
2022-12-25T00:32:27.313Z,-1.80
2022-12-25T00:35:18.870Z,-1.80
2022-12-25T00:44:47.294Z,-1.70
2022-12-25T01:00:51.829Z,-0.70
2022-12-25T01:03:19.819Z,-0.60
2022-12-25T01:06:26.817Z,-0.50
2022-12-25T01:12:34.815Z,0.20
2022-12-25T01:15:08.496Z,1.60
2022-12-25T01:18:14.491Z,2.50
2022-12-25T01:20:49.940Z,3.00
2022-12-25T01:23:24.807Z,3.30
2022-12-25T01:26:09.350Z,3.50
2022-12-25T01:38:37.066Z,4.20
2022-12-25T01:41:29.063Z,4.30
2022-12-25T01:48:03.881Z,4.70
2022-12-25T01:51:00.506Z,4.90
2022-12-25T02:16:28.914Z,5.40
2022-12-25T02:23:05.220Z,5.50
2022-12-25T02:26:34.263Z,5.50
2022-12-25T02:29:54.351Z,5.50
2022-12-25T02:33:28.686Z,5.40
2022-12-25T02:36:27.066Z,5.30
2022-12-25T02:40:02.553Z,5.20
2022-12-25T02:43:32.066Z,5.20
2022-12-25T02:46:51.495Z,4.90
2022-12-25T02:49:48.161Z,4.90
2022-12-25T02:52:43.191Z,5.00
2022-12-25T02:56:00.138Z,4.90
2022-12-25T02:58:56.217Z,5.00
2022-12-25T03:01:53.336Z,5.00
2022-12-25T03:04:45.288Z,5.10
2022-12-25T03:07:46.224Z,5.10
2022-12-25T03:11:01.397Z,5.10
2022-12-25T03:27:53.104Z,5.30
2022-12-25T03:31:11.433Z,5.30
2022-12-25T03:34:34.462Z,5.30
2022-12-25T03:37:46.298Z,5.40
2022-12-25T03:51:23.804Z,5.20
2022-12-25T03:54:35.744Z,5.10
2022-12-25T03:57:39.908Z,5.00
2022-12-25T04:00:38.125Z,5.00
2022-12-25T04:07:05.446Z,4.90
2022-12-25T04:10:16.314Z,4.80
2022-12-25T04:13:08.143Z,4.80
2022-12-25T04:16:15.506Z,4.80
2022-12-25T04:19:04.548Z,4.90
2022-12-25T04:21:49.863Z,4.90
2022-12-25T04:24:48.373Z,5.00
2022-12-25T04:27:52.607Z,5.00
2022-12-25T04:30:47.632Z,5.00
2022-12-25T04:34:07.443Z,5.10
2022-12-25T04:37:22.529Z,5.20
2022-12-25T04:40:16.548Z,5.10
2022-12-25T04:43:00.505Z,5.20
2022-12-25T04:45:33.674Z,5.20
2022-12-25T04:51:34.258Z,5.40
2022-12-25T04:54:25.503Z,5.30
2022-12-25T04:57:08.011Z,5.20
2022-12-25T04:59:39.476Z,5.20
2022-12-25T05:02:40.931Z,5.10
2022-12-25T05:08:58.515Z,5.10
2022-12-25T05:11:44.364Z,5.20
2022-12-25T05:17:48.157Z,5.30
2022-12-25T05:20:40.388Z,5.30
2022-12-25T05:23:19.565Z,5.20
2022-12-25T05:26:29.699Z,5.10
2022-12-25T05:32:34.644Z,4.80
2022-12-25T05:35:17.444Z,4.80
2022-12-25T05:37:54.621Z,4.80
2022-12-25T05:40:30.542Z,4.80
2022-12-25T05:43:19.721Z,4.70
2022-12-25T05:46:09.483Z,4.70
2022-12-25T05:51:53.875Z,4.50
2022-12-25T05:54:42.418Z,4.60
2022-12-25T05:57:16.582Z,4.60
2022-12-25T05:59:52.620Z,4.60
2022-12-25T06:02:35.758Z,4.50
2022-12-25T06:05:27.614Z,4.50
2022-12-25T06:08:37.730Z,4.50
2022-12-25T06:11:06.814Z,4.50
2022-12-25T06:13:44.942Z,4.40
2022-12-25T06:16:43.134Z,4.50
2022-12-25T06:19:57.992Z,4.50
2022-12-25T06:25:28.726Z,4.30
2022-12-25T06:28:19.823Z,4.30
2022-12-25T06:31:01.789Z,4.40
2022-12-25T06:34:23.547Z,4.30
2022-12-25T06:37:28.789Z,2.60
2022-12-25T06:40:20.487Z,0.50
2022-12-25T06:43:29.801Z,-0.90
2022-12-25T06:46:50.708Z,-1.80
2022-12-25T06:49:21.577Z,-2.30
2022-12-25T06:51:57.594Z,-2.60
2022-12-25T07:07:39.464Z,-3.40
2022-12-25T07:10:31.478Z,-3.50
2022-12-25T07:13:13.718Z,-3.50
2022-12-25T07:16:12.815Z,-3.50
2022-12-25T07:22:21.229Z,-3.20
2022-12-25T07:24:57.661Z,-3.10
2022-12-25T07:33:58.955Z,-3.20
2022-12-25T07:36:40.762Z,-3.20
2022-12-25T07:39:17.241Z,-3.20
2022-12-25T07:42:25.428Z,-3.10
2022-12-25T07:45:11.993Z,-2.80
2022-12-25T07:48:17.046Z,0.00
2022-12-25T07:51:33.021Z,1.70
2022-12-25T07:54:22.179Z,2.50
2022-12-25T07:57:10.204Z,2.70
2022-12-25T07:59:43.725Z,3.00
2022-12-25T08:03:03.311Z,3.40
2022-12-25T08:06:03.713Z,3.70
2022-12-25T08:08:48.563Z,4.00
2022-12-25T08:11:45.180Z,4.20
2022-12-25T08:14:18.412Z,4.30
2022-12-25T08:16:56.398Z,4.40
2022-12-25T08:20:03.314Z,4.40
2022-12-25T08:26:12.470Z,4.60
2022-12-25T08:52:01.956Z,5.80
2022-12-25T08:55:12.082Z,5.90
2022-12-25T08:58:09.871Z,6.00
2022-12-25T09:04:04.175Z,6.30
2022-12-25T09:06:38.014Z,6.50
2022-12-25T09:09:32.648Z,6.60
2022-12-25T09:12:11.807Z,6.60
2022-12-25T09:18:08.809Z,6.70
2022-12-25T09:20:51.181Z,7.00
2022-12-25T09:23:29.342Z,7.20
2022-12-25T09:29:35.317Z,7.40
2022-12-25T09:32:36.243Z,7.50
2022-12-25T09:35:25.827Z,7.70
2022-12-25T09:38:37.074Z,7.90
2022-12-25T09:41:41.162Z,8.00
2022-12-25T09:44:21.576Z,8.20
2022-12-25T09:47:25.575Z,8.30
2022-12-25T09:50:17.442Z,8.30
2022-12-25T09:53:04.543Z,8.50
2022-12-25T09:55:53.462Z,8.70
2022-12-25T10:11:40.861Z,9.40
2022-12-25T10:15:00.833Z,9.40
2022-12-25T10:18:00.551Z,9.40
2022-12-25T10:21:11.035Z,9.60
2022-12-25T10:31:14.672Z,9.40
2022-12-25T10:37:05.607Z,9.80
2022-12-25T10:40:00.356Z,9.90
2022-12-25T10:46:05.670Z,9.50
2022-12-25T10:49:15.417Z,6.90
2022-12-25T11:04:39.701Z,3.20
2022-12-25T11:08:05.244Z,3.30
2022-12-25T11:11:17.549Z,3.30
2022-12-25T11:14:19.891Z,4.20
2022-12-25T11:20:16.120Z,6.00
2022-12-25T11:22:53.702Z,6.80
2022-12-25T11:28:37.213Z,7.80
2022-12-25T11:31:50.795Z,8.20
2022-12-25T11:35:17.736Z,8.50
2022-12-25T11:38:10.842Z,8.80
2022-12-25T11:41:21.983Z,9.10
2022-12-25T11:44:38.781Z,9.30
2022-12-25T11:47:55.809Z,9.60
2022-12-25T11:53:48.352Z,10.00
2022-12-25T11:56:25.314Z,10.00
2022-12-25T12:02:22.109Z,10.30
2022-12-25T12:15:46.448Z,10.30
2022-12-25T12:25:57.820Z,10.50
2022-12-25T12:29:30.513Z,10.50
2022-12-25T12:39:13.007Z,10.60
2022-12-25T12:45:49.629Z,10.80
2022-12-25T12:48:43.523Z,10.90
2022-12-25T12:51:22.423Z,10.90
2022-12-25T12:57:36.167Z,11.00
2022-12-25T13:00:55.498Z,11.20
2022-12-25T13:03:31.049Z,11.30
2022-12-25T13:06:36.696Z,11.40
2022-12-25T13:09:38.058Z,11.50
2022-12-25T13:12:20.876Z,11.50
2022-12-25T13:15:11.122Z,11.50
2022-12-25T13:18:08.438Z,11.50
2022-12-25T13:21:04.091Z,11.50
2022-12-25T13:23:48.999Z,11.60
2022-12-25T13:26:28.228Z,11.50
2022-12-25T13:29:22.854Z,11.40
2022-12-25T13:32:02.311Z,11.40
2022-12-25T13:35:11.557Z,11.40
2022-12-25T13:38:07.205Z,11.40
2022-12-25T13:41:18.759Z,11.40
2022-12-25T13:44:30.180Z,11.40
2022-12-25T13:50:32.038Z,11.30
2022-12-25T13:53:25.496Z,11.40
2022-12-25T13:56:22.154Z,11.30
2022-12-25T13:59:21.406Z,11.40
2022-12-25T14:02:08.198Z,11.30
2022-12-25T14:05:02.274Z,11.30
2022-12-25T14:11:48.264Z,11.10
2022-12-25T14:21:13.299Z,10.70
2022-12-25T14:24:05.527Z,10.60
2022-12-25T14:40:34.235Z,10.20
2022-12-25T14:46:43.821Z,10.00
2022-12-25T14:53:12.704Z,9.90
2022-12-25T14:56:25.436Z,9.80
2022-12-25T14:59:23.979Z,9.70
2022-12-25T15:02:17.463Z,9.60
2022-12-25T15:05:12.359Z,9.50
2022-12-25T15:08:01.403Z,9.40
2022-12-25T15:11:06.199Z,9.30
2022-12-25T15:13:54.466Z,9.30
2022-12-25T15:17:02.255Z,9.20
2022-12-25T15:19:58.420Z,9.00
2022-12-25T15:22:47.664Z,9.00
2022-12-25T15:25:33.983Z,8.90
2022-12-25T15:28:34.416Z,8.80
2022-12-25T15:32:00.828Z,8.70
2022-12-25T15:34:41.997Z,8.70
2022-12-25T15:37:09.475Z,8.70
2022-12-25T15:40:07.441Z,8.60
2022-12-25T15:42:38.157Z,8.50
2022-12-25T15:45:40.325Z,8.50
2022-12-25T15:48:31.970Z,8.40
2022-12-25T15:51:07.663Z,8.30
2022-12-25T16:00:23.538Z,8.10
2022-12-25T16:03:30.673Z,6.60
2022-12-25T16:06:54.360Z,4.50
2022-12-25T16:09:33.554Z,3.30
2022-12-25T16:12:25.137Z,2.70
2022-12-25T16:15:26.176Z,2.40
2022-12-25T16:18:10.419Z,2.20
2022-12-25T16:20:55.726Z,2.50
2022-12-25T16:23:22.901Z,3.40
2022-12-25T16:25:53.696Z,4.10
2022-12-25T16:28:39.581Z,4.70
2022-12-25T16:31:13.802Z,5.20
2022-12-25T16:34:03.641Z,5.60
2022-12-25T16:37:10.450Z,5.90
2022-12-25T16:43:27.919Z,6.40
2022-12-25T16:46:27.196Z,6.50
2022-12-25T16:52:59.350Z,6.70
2022-12-25T16:55:49.336Z,6.80
2022-12-25T17:05:07.818Z,6.80
2022-12-25T17:11:44.894Z,7.10
2022-12-25T17:17:51.569Z,7.10
2022-12-25T17:20:57.829Z,7.20
2022-12-25T17:27:18.120Z,7.20
2022-12-25T17:33:43.850Z,7.00
2022-12-25T17:39:57.514Z,7.00
2022-12-25T17:43:23.065Z,7.00
2022-12-25T17:46:30.062Z,7.00
2022-12-25T17:49:38.098Z,6.90
2022-12-25T17:52:53.966Z,6.80
2022-12-25T18:08:24.595Z,6.80
2022-12-25T18:14:20.603Z,6.70
2022-12-25T18:20:05.451Z,6.60
2022-12-25T18:23:05.500Z,6.40
2022-12-25T18:25:43.450Z,6.30
2022-12-25T18:28:42.060Z,6.30
2022-12-25T18:31:34.214Z,6.20
2022-12-25T18:34:40.912Z,6.20
2022-12-25T18:37:39.410Z,6.20
2022-12-25T18:40:58.784Z,6.10
2022-12-25T18:47:36.359Z,6.10
2022-12-25T18:50:10.225Z,6.00
2022-12-25T18:56:42.829Z,5.40
2022-12-25T18:59:20.457Z,5.50
2022-12-25T19:05:34.380Z,5.70
2022-12-25T19:08:34.913Z,5.70
2022-12-25T19:24:57.702Z,5.70
2022-12-25T19:28:21.688Z,5.60
2022-12-25T19:31:22.647Z,5.60
2022-12-25T19:34:44.070Z,5.60
2022-12-25T19:37:48.527Z,5.60
2022-12-25T19:43:37.010Z,5.40
2022-12-25T19:46:41.998Z,5.40
2022-12-25T19:50:08.799Z,5.40
2022-12-25T19:53:18.877Z,5.30
2022-12-25T19:56:27.423Z,5.30
2022-12-25T20:03:07.614Z,5.20
2022-12-25T20:12:27.965Z,5.10
2022-12-25T20:18:18.371Z,5.20
2022-12-25T20:31:07.929Z,4.90
2022-12-25T20:34:15.729Z,4.90
2022-12-25T20:37:13.428Z,4.90
2022-12-25T20:43:29.767Z,4.80
2022-12-25T20:49:39.923Z,4.70
2022-12-25T20:52:48.160Z,4.70
2022-12-25T20:55:49.724Z,4.60
2022-12-25T20:58:43.929Z,4.70
2022-12-25T21:01:33.243Z,4.70
2022-12-25T21:04:02.970Z,4.70
2022-12-25T21:10:35.592Z,4.40
2022-12-25T21:14:07.344Z,4.30
2022-12-25T21:20:23.617Z,4.30
2022-12-25T21:26:09.768Z,4.30
2022-12-25T21:29:16.539Z,4.20
2022-12-25T21:32:19.886Z,4.10
2022-12-25T21:35:04.499Z,4.00
2022-12-25T21:41:00.796Z,3.90
2022-12-25T21:43:37.789Z,4.00
2022-12-25T21:46:40.896Z,4.00
2022-12-25T21:50:00.084Z,4.10
2022-12-25T21:56:04.226Z,4.10
2022-12-25T22:01:58.333Z,4.00
2022-12-25T22:08:33.032Z,4.00
2022-12-25T22:18:12.816Z,4.10
2022-12-25T22:21:31.663Z,4.20
2022-12-25T22:24:23.309Z,4.30
2022-12-25T22:27:08.263Z,4.20
2022-12-25T22:30:21.675Z,4.20
2022-12-25T22:33:33.380Z,4.20
2022-12-25T22:36:11.861Z,4.00
2022-12-25T22:38:59.000Z,4.00
2022-12-25T22:42:11.931Z,3.90
2022-12-25T22:45:25.528Z,3.80
2022-12-25T22:51:32.490Z,3.80
2022-12-25T22:54:11.038Z,3.80
2022-12-25T22:56:54.636Z,3.60
2022-12-25T22:59:32.549Z,3.40
2022-12-25T23:02:24.299Z,3.30
2022-12-25T23:05:07.353Z,3.20
2022-12-25T23:08:00.128Z,3.20
2022-12-25T23:11:06.532Z,3.20
2022-12-25T23:14:12.319Z,3.30
2022-12-25T23:16:55.372Z,3.40
2022-12-25T23:23:02.612Z,3.60
2022-12-25T23:26:28.784Z,3.60
2022-12-25T23:29:39.847Z,3.60
2022-12-25T23:32:35.067Z,3.60
2022-12-25T23:35:54.959Z,3.50
2022-12-25T23:41:30.067Z,0.00
2022-12-25T23:44:37.166Z,-0.80
2022-12-25T23:50:47.192Z,-1.70
2022-12-25T23:53:15.579Z,-1.90
